Leeds, United Kingdom
Current Conditions -  °F | °C
As of 4:50 AM on Sunday 23 Nov 2014 (Local Time) from EGNM Reporting Station
Light Rain Light Rain  
Wind Chill: 41°   Ceiling: 4900
Heat Index: 45°   Visibility: 6mi
Dew Point: 43°   Wind: 7mph
Humidity: 93%   Direction: 280°W
Pressure: 29.97"   Gusts: NA
Location:  53.8°N, 1.55°W
Report Text: EGNM 230450Z 28006KT 9999 -RA BKN049 07/06 Q1015
Loading
Personal Weather Stations






























Interactive Weather Map New forecast layout! Learn more

10-Day Weather Forecast

Advertisements
Track Severe Weather on mobile